Kimberling City, Missouri
Current Conditions -  °F | °C
As of 7:35 AM on Wednesday 26 Nov 2014 (Local Time) from KFWB Reporting Station
Overcast Overcast  
Wind Chill:   Ceiling: 6000
Heat Index:   Visibility: 10mi
Dew Point: -3°   Wind: 0mph
Humidity: 80%   Direction: NA
Pressure: 29.96"   Gusts: NA
Location:  36.63°N, 93.42°W
Report Text: KFWB 261335Z AUTO 00000KT 10SM FEW048 BKN060 OVC070 00/M03 A2996 RMK AO2
Loading
Personal Weather Stations






























Interactive Weather Map New forecast layout! Learn more

10-Day Weather Forecast

Advertisements
Track Severe Weather on mobile